Weather at Waterford Airport

Public forecast

Using degrees Celsius for public forecast. Weather courtesy of forecast.io.

Current aviation weather report (METAR) for Waterford Airport

2024/06/13 09:30 (retrieved 35 minutes ago)

EIWF 130930Z 18025G40KT 2300 -RA BR BKN003 13/12 Q1001

Closest aviation forecast (TAF) to Waterford Airport

Closest forecast is Cork Airport, 55.9 nm (103.5 km) WSW.

2024/06/13 06:09 (retrieved 4 hours ago)

TAF EICK 130500Z 1306/1406 17018G28KT 4000 -RA BKN006 TEMPO 1306/1309 2000 RA BR BKN003 PROB30 TEMPO 1308/1310 17022G38KT 0800 FG BKN001 BECMG 1309/1311 27015G25KT 9999 NSW BKN015 PROB30 TEMPO 1311/1313 BKN010 BECMG 1313/1315 27012KT BECMG 1320/1322 23008KT TEMPO 1400/1403 -SHRA FEW020CB